Time;durP1;ratioP1;P1;durP2;ratioP2;P2;SDS_P1;SDS_P2;PMS_P1;PMS_P2;Temp;Humidity;BMP_temperature;BMP_pressure;BME280_temperature;BME280_humidity;BME280_pressure;Samples;Min_cycle;Max_cycle;Signal;HPM_P1;HPM_P2
2022/01/31 00:00:51;;;;;;;32.30;8.38;;;;;;;3.81;51.99;94829.31;4970731;28;20401;-76
2022/01/31 00:03:16;;;;;;;25.65;6.95;;;;;;;3.83;51.72;94832.50;4970634;28;20039;-76
2022/01/31 00:05:42;;;;;;;27.00;6.32;;;;;;;3.87;50.86;94823.41;4961061;28;20078;-76
2022/01/31 00:08:07;;;;;;;22.83;6.72;;;;;;;3.81;51.35;94816.47;4970519;28;20046;-76
2022/01/31 00:10:33;;;;;;;36.60;6.35;;;;;;;3.76;50.92;94818.81;4944615;28;20038;-76
2022/01/31 00:13:06;;;;;;;32.60;6.55;;;;;;;3.74;51.16;94826.72;4971945;28;20490;-76
2022/01/31 00:15:35;;;;;;;41.20;7.07;;;;;;;3.64;51.42;94822.88;4930715;28;20102;-76
2022/01/31 00:18:01;;;;;;;29.60;6.50;;;;;;;3.65;51.94;94834.75;4998978;23;20050;-76
2022/01/31 00:20:26;;;;;;;35.08;6.70;;;;;;;3.65;51.48;94833.00;4987881;28;20037;-75
2022/01/31 00:22:52;;;;;;;26.73;6.75;;;;;;;3.68;51.48;94840.31;4988942;28;20085;-77
2022/01/31 00:25:17;;;;;;;30.40;5.65;;;;;;;3.66;51.37;94844.84;4988428;28;20054;-75
2022/01/31 00:27:43;;;;;;;29.90;5.15;;;;;;;3.61;51.43;94840.28;4989386;28;20045;-75
2022/01/31 00:30:09;;;;;;;26.98;5.50;;;;;;;3.65;52.12;94837.34;4989329;28;20100;-75
2022/01/31 00:32:35;;;;;;;14.38;5.45;;;;;;;3.68;51.47;94839.53;4972065;28;20565;-75
2022/01/31 00:35:01;;;;;;;28.42;6.05;;;;;;;3.70;51.86;94840.13;4971690;28;20117;-75
2022/01/31 00:37:26;;;;;;;29.63;5.43;;;;;;;3.77;51.48;94833.25;4956105;28;20545;-75
2022/01/31 00:39:52;;;;;;;28.77;5.63;;;;;;;3.81;51.66;94844.75;4971924;28;20387;-77
2022/01/31 00:42:19;;;;;;;29.58;6.00;;;;;;;3.80;50.91;94848.31;4972142;28;20422;-76
2022/01/31 00:44:53;;;;;;;25.55;6.25;;;;;;;3.81;51.44;94842.19;4971518;28;20069;-76
2022/01/31 00:47:22;;;;;;;22.30;6.00;;;;;;;3.79;51.18;94839.81;4989119;28;20121;-76
2022/01/31 00:49:51;;;;;;;21.98;5.38;;;;;;;3.84;51.10;94852.09;4989161;28;20034;-76
2022/01/31 00:52:16;;;;;;;30.42;6.50;;;;;;;3.89;50.58;94852.31;4956071;28;20078;-76
2022/01/31 00:54:42;;;;;;;25.73;5.50;;;;;;;3.98;50.30;94853.75;4971270;28;20506;-76
2022/01/31 00:57:07;;;;;;;19.52;4.97;;;;;;;4.01;50.32;94845.66;4971679;28;20100;-76
2022/01/31 00:59:32;;;;;;;23.40;6.55;;;;;;;4.03;50.62;94859.13;4989132;28;20037;-77
2022/01/31 01:01:58;;;;;;;23.95;5.20;;;;;;;4.11;50.13;94860.75;4957139;28;20034;-76
2022/01/31 01:04:23;;;;;;;34.60;5.53;;;;;;;4.07;50.09;94855.22;4956171;28;20061;-76
2022/01/31 01:06:49;;;;;;;25.42;4.65;;;;;;;4.08;50.22;94856.00;4992250;28;20112;-76
2022/01/31 01:09:14;;;;;;;28.95;5.72;;;;;;;4.09;50.17;94858.38;4974573;28;20034;-77
2022/01/31 01:11:40;;;;;;;23.98;4.63;;;;;;;4.11;49.40;94860.75;4974921;28;20045;-76
2022/01/31 01:14:05;;;;;;;28.85;4.70;;;;;;;4.12;49.32;94854.63;4974916;28;20033;-76
2022/01/31 01:16:31;;;;;;;21.83;4.60;;;;;;;4.14;48.97;94861.16;4992024;28;20619;-76
2022/01/31 01:18:56;;;;;;;15.43;4.32;;;;;;;4.10;48.92;94854.81;4992202;28;20703;-76
2022/01/31 01:21:21;;;;;;;45.55;6.07;;;;;;;4.10;48.72;94852.25;4974594;28;20501;-76
2022/01/31 01:23:47;;;;;;;20.92;4.15;;;;;;;4.08;48.84;94851.66;4974735;28;20037;-77
2022/01/31 01:26:12;;;;;;;51.33;5.57;;;;;;;4.09;49.09;94853.22;4958613;28;20038;-77
2022/01/31 01:28:38;;;;;;;36.72;4.50;;;;;;;4.13;49.68;94854.44;4958476;28;20478;-77
2022/01/31 01:31:03;;;;;;;33.28;4.63;;;;;;;4.11;49.13;94853.84;4974715;28;20049;-77
2022/01/31 01:33:36;;;;;;;16.52;3.90;;;;;;;4.19;48.84;94853.66;4942618;28;20037;-77
2022/01/31 01:36:03;;;;;;;34.05;5.20;;;;;;;4.25;49.49;94846.19;4960467;28;20133;-77
2022/01/31 01:38:30;;;;;;;14.25;4.78;;;;;;;4.27;48.79;94849.34;4991093;28;20703;-77
2022/01/31 01:40:57;;;;;;;15.48;5.45;;;;;;;4.31;48.93;94843.63;4991780;28;20462;-77
2022/01/31 01:43:23;;;;;;;14.43;4.57;;;;;;;4.35;48.65;94847.38;4959228;28;20030;-77
2022/01/31 01:45:50;;;;;;;28.38;5.25;;;;;;;4.44;48.18;94848.81;4958222;28;20100;-77
2022/01/31 01:48:16;;;;;;;25.55;4.97;;;;;;;4.38;47.51;94846.22;4973920;28;20113;-77
2022/01/31 01:50:41;;;;;;;27.63;4.95;;;;;;;4.30;47.42;94847.19;4958284;28;20391;-77
2022/01/31 01:53:07;;;;;;;12.23;3.85;;;;;;;4.28;47.66;94845.78;4958258;28;20042;-77
2022/01/31 01:55:32;;;;;;;19.08;4.45;;;;;;;4.22;47.55;94855.84;4957483;28;20069;-77
2022/01/31 01:57:58;;;;;;;24.73;5.25;;;;;;;4.19;48.14;94853.66;4989280;28;20047;-77
2022/01/31 02:00:27;;;;;;;20.73;4.90;;;;;;;4.27;47.96;94854.50;4990599;28;20026;-77
2022/01/31 02:02:53;;;;;;;18.13;4.80;;;;;;;4.28;47.65;94849.16;4991830;28;20061;-77
2022/01/31 02:05:19;;;;;;;20.17;4.95;;;;;;;4.26;47.98;94848.56;4990468;28;20092;-77
2022/01/31 02:07:44;;;;;;;25.05;5.35;;;;;;;4.35;47.46;94856.91;4991659;28;20038;-76
2022/01/31 02:10:10;;;;;;;17.60;6.10;;;;;;;4.40;47.11;94839.13;4950234;28;20465;-77
2022/01/31 02:12:44;;;;;;;35.15;4.00;;;;;;;4.34;47.75;94850.16;4974000;28;20545;-76
2022/01/31 02:15:10;;;;;;;28.95;5.25;;;;;;;4.38;47.35;94851.34;4990960;28;20030;-77
2022/01/31 02:17:36;;;;;;;14.10;3.95;;;;;;;4.37;47.17;94850.56;4991507;28;20085;-77
2022/01/31 02:20:02;;;;;;;19.38;5.40;;;;;;;4.43;46.71;94849.03;4973991;28;20026;-77
2022/01/31 02:22:27;;;;;;;26.15;6.30;;;;;;;4.40;46.28;94849.41;4973789;28;20056;-77
2022/01/31 02:24:53;;;;;;;23.55;6.15;;;;;;;4.38;46.76;94841.84;4991046;28;20030;-77
2022/01/31 02:27:32;;;;;;;29.77;5.38;;;;;;;4.42;46.81;94848.22;4973750;28;20045;-76
2022/01/31 02:29:58;;;;;;;28.65;4.63;;;;;;;4.43;46.37;94838.72;4991094;28;20038;-76
2022/01/31 02:32:23;;;;;;;12.73;3.83;;;;;;;4.42;46.30;94839.72;4973860;28;20038;-76
2022/01/31 02:34:49;;;;;;;26.08;5.25;;;;;;;4.38;46.53;94846.22;4990781;28;20041;-76
2022/01/31 02:37:15;;;;;;;13.68;4.53;;;;;;;4.34;46.68;94845.00;4957550;28;20133;-76
2022/01/31 02:39:41;;;;;;;13.48;4.60;;;;;;;4.31;46.80;94856.50;4973518;28;20581;-76
2022/01/31 02:42:07;;;;;;;22.02;3.88;;;;;;;4.28;46.16;94856.09;4973766;28;20038;-76
2022/01/31 02:44:32;;;;;;;17.35;3.65;;;;;;;4.30;45.70;94851.53;4989035;28;20161;-76
2022/01/31 02:46:58;;;;;;;17.27;4.72;;;;;;;4.23;46.30;94864.38;4989167;28;20030;-76
2022/01/31 02:49:27;;;;;;;9.77;3.92;;;;;;;4.20;46.52;94862.97;4990868;28;20031;-76
2022/01/31 02:51:59;;;;;;;19.30;5.30;;;;;;;4.17;46.96;94855.63;4989927;28;20037;-76
2022/01/31 02:54:25;;;;;;;11.38;4.15;;;;;;;4.10;47.24;94854.03;4990225;28;20089;-76
2022/01/31 02:56:51;;;;;;;14.50;4.13;;;;;;;4.06;47.31;94863.88;4990251;28;20121;-76
2022/01/31 02:59:16;;;;;;;11.82;4.18;;;;;;;4.01;47.23;94855.16;4990556;28;20034;-76
2022/01/31 03:01:42;;;;;;;12.90;3.55;;;;;;;4.00;46.68;94851.78;4990842;28;20038;-77
2022/01/31 03:04:07;;;;;;;7.53;3.03;;;;;;;3.98;46.89;94845.25;4990739;28;20030;-77
2022/01/31 03:06:33;;;;;;;15.85;4.38;;;;;;;3.88;47.27;94863.59;4956966;28;20477;-77
2022/01/31 03:08:59;;;;;;;8.88;3.88;;;;;;;3.87;47.25;94859.41;4956762;28;20049;-77
2022/01/31 03:11:24;;;;;;;13.23;4.38;;;;;;;3.87;47.21;94864.56;4973352;28;20042;-77
2022/01/31 03:13:50;;;;;;;16.77;4.22;;;;;;;3.84;47.27;94859.81;4957015;28;20023;-77
2022/01/31 03:16:15;;;;;;;15.23;5.70;;;;;;;3.86;47.37;94874.06;4972897;28;20026;-77
2022/01/31 03:18:40;;;;;;;24.20;5.20;;;;;;;3.88;47.57;94873.88;4990301;28;20042;-77
2022/01/31 03:21:06;;;;;;;14.35;5.80;;;;;;;3.96;47.97;94871.16;4957035;28;20026;-76
2022/01/31 03:23:33;;;;;;;21.75;6.63;;;;;;;3.97;47.44;94874.53;4990080;28;20813;-76
2022/01/31 03:25:59;;;;;;;24.45;5.30;;;;;;;4.02;48.17;94867.03;4969996;28;20126;-76
2022/01/31 03:28:24;;;;;;;19.42;5.22;;;;;;;3.97;47.52;94859.88;4990548;28;20045;-77
2022/01/31 03:30:51;;;;;;;26.52;5.72;;;;;;;3.95;46.68;94850.78;4990356;28;20022;-76
2022/01/31 03:33:17;;;;;;;19.33;5.22;;;;;;;3.86;47.11;94857.84;4972532;28;20113;-77
2022/01/31 03:35:42;;;;;;;20.25;5.93;;;;;;;3.80;47.38;94853.47;4972592;28;20121;-76
2022/01/31 03:38:07;;;;;;;17.80;5.57;;;;;;;3.68;47.75;94849.81;4972665;28;20034;-76
2022/01/31 03:40:33;;;;;;;13.55;4.07;;;;;;;3.59;47.86;94852.53;4968196;23;20032;-76
2022/01/31 03:42:58;;;;;;;13.77;5.45;;;;;;;3.63;48.15;94852.16;4951458;28;20074;-77
2022/01/31 03:45:24;;;;;;;18.48;5.28;;;;;;;3.64;48.21;94849.41;4923180;29;20032;-77
2022/01/31 03:47:49;;;;;;;13.18;5.20;;;;;;;3.61;48.03;94860.06;4932444;29;20114;-77
2022/01/31 03:50:17;;;;;;;19.23;5.97;;;;;;;3.59;48.38;94852.53;4911852;29;20032;-77
2022/01/31 03:52:42;;;;;;;23.00;5.18;;;;;;;3.58;48.41;94861.25;4932293;29;20074;-77
2022/01/31 03:55:09;;;;;;;22.10;6.80;;;;;;;3.64;48.13;94854.53;4932045;29;20443;-76
2022/01/31 03:57:35;;;;;;;28.10;8.15;;;;;;;3.66;47.99;94854.34;4966051;23;20042;-76
2022/01/31 04:00:01;;;;;;;18.58;8.80;;;;;;;3.67;47.76;94840.50;4999514;28;20065;-77
2022/01/31 04:02:27;;;;;;;31.60;7.10;;;;;;;3.70;47.83;94847.84;4999992;28;20112;-76
2022/01/31 04:04:52;;;;;;;21.90;7.38;;;;;;;3.74;48.18;94843.91;4964480;28;20042;-76
2022/01/31 04:07:18;;;;;;;17.83;6.25;;;;;;;3.73;47.45;94850.03;4997684;28;20045;-76
2022/01/31 04:09:43;;;;;;;21.92;6.00;;;;;;;3.76;47.82;94852.25;4999598;28;20418;-76
2022/01/31 04:12:09;;;;;;;16.75;5.38;;;;;;;3.82;47.39;94861.78;4999166;28;20034;-76
2022/01/31 04:14:35;;;;;;;14.70;5.25;;;;;;;3.79;47.37;94864.72;4999466;28;20096;-76
2022/01/31 04:17:00;;;;;;;22.63;5.88;;;;;;;3.81;47.70;94865.34;4989811;28;20034;-76
2022/01/31 04:19:25;;;;;;;26.58;6.63;;;;;;;3.84;47.33;94868.31;4999439;28;20034;-76
2022/01/31 04:21:51;;;;;;;11.52;5.18;;;;;;;3.75;47.20;94866.88;4999680;28;20026;-76
2022/01/31 04:24:22;;;;;;;20.30;5.47;;;;;;;3.70;48.06;94868.41;4999315;28;20037;-76
2022/01/31 04:26:57;;;;;;;15.43;5.40;;;;;;;3.61;48.07;94870.34;4981785;28;20117;-76
2022/01/31 04:29:24;;;;;;;23.38;5.25;;;;;;;3.64;47.91;94869.19;4982778;28;20030;-76
2022/01/31 04:31:51;;;;;;;15.10;4.70;;;;;;;3.60;48.85;94874.69;5005918;28;20122;-77
2022/01/31 04:34:17;;;;;;;16.15;4.72;;;;;;;3.50;49.44;94860.56;4981641;28;20371;-76
2022/01/31 04:36:42;;;;;;;13.82;4.70;;;;;;;3.43;49.34;94873.38;4981627;28;20046;-77
2022/01/31 04:39:15;;;;;;;14.13;4.30;;;;;;;3.33;49.41;94859.25;5002383;28;20030;-76
2022/01/31 04:41:40;;;;;;;;;;;;;;;3.17;50.27;94868.00;4993597;28;20034;-77
2022/01/31 04:44:07;;;;;;;21.35;5.82;;;;;;;3.07;50.72;94867.50;4985151;28;19921;-76
2022/01/31 04:46:33;;;;;;;15.20;5.30;;;;;;;2.95;51.43;94864.66;4968742;28;20030;-76
2022/01/31 04:48:58;;;;;;;14.52;5.32;;;;;;;2.88;51.62;94854.31;4985949;28;20026;-76
2022/01/31 04:51:23;;;;;;;15.48;5.10;;;;;;;2.86;51.87;94856.25;5001993;28;20034;-76
2022/01/31 04:53:49;;;;;;;17.27;5.28;;;;;;;2.78;52.04;94856.41;4984654;28;20056;-76
2022/01/31 04:56:14;;;;;;;21.00;6.35;;;;;;;2.76;52.00;94849.81;4983942;28;20026;-77
2022/01/31 04:58:40;;;;;;;12.10;7.93;;;;;;;2.74;51.92;94852.59;5009395;28;20453;-77
2022/01/31 05:01:05;;;;;;;29.63;10.80;;;;;;;2.76;52.25;94839.56;4984751;28;20057;-77
2022/01/31 05:03:31;;;;;;;44.00;15.57;;;;;;;2.76;52.11;94848.06;5008616;28;20497;-77
2022/01/31 05:05:56;;;;;;;26.73;10.35;;;;;;;2.67;52.25;94846.59;4983753;28;20033;-76
2022/01/31 05:08:26;;;;;;;37.45;10.13;;;;;;;2.66;52.72;94845.00;4992562;28;20038;-76
2022/01/31 05:10:51;;;;;;;34.33;11.68;;;;;;;2.65;52.70;94841.66;5002081;28;20120;-77
2022/01/31 05:13:17;;;;;;;28.10;10.13;;;;;;;2.63;52.95;94842.81;5009096;23;20753;-76
2022/01/31 05:15:43;;;;;;;22.90;7.88;;;;;;;2.72;52.68;94847.63;5016133;23;20042;-76
2022/01/31 05:18:08;;;;;;;25.67;8.90;;;;;;;2.71;52.42;94847.81;4972964;28;20052;-76
2022/01/31 05:20:34;;;;;;;23.25;11.30;;;;;;;2.72;52.65;94839.94;4970689;28;20562;-76
2022/01/31 05:22:59;;;;;;;19.33;8.23;;;;;;;2.72;52.41;94850.19;4972976;28;20038;-76
2022/01/31 05:25:25;;;;;;;24.38;8.82;;;;;;;2.73;52.46;94856.13;4972839;28;20462;-76
2022/01/31 05:27:50;;;;;;;16.20;8.80;;;;;;;2.64;52.69;94841.84;4945659;28;20038;-75
2022/01/31 05:30:19;;;;;;;17.70;7.50;;;;;;;2.59;52.65;94844.91;4946134;28;20825;-76
2022/01/31 05:32:45;;;;;;;13.13;6.60;;;;;;;2.53;52.88;94850.00;4953655;28;20073;-76
2022/01/31 05:35:10;;;;;;;18.35;7.25;;;;;;;2.51;52.99;94854.53;4961584;28;20038;-76
2022/01/31 05:37:35;;;;;;;23.38;8.38;;;;;;;2.50;53.31;94855.50;4939157;28;20042;-76
2022/01/31 05:40:02;;;;;;;31.20;8.25;;;;;;;2.46;52.97;94854.28;4956411;28;20043;-78
2022/01/31 05:42:28;;;;;;;26.67;8.90;;;;;;;2.37;53.30;94856.94;4924291;28;20138;-78
2022/01/31 05:44:53;;;;;;;15.40;7.35;;;;;;;2.43;53.11;94865.66;4939770;28;20027;-78
2022/01/31 05:47:19;;;;;;;13.63;6.80;;;;;;;2.47;53.01;94861.00;4955142;28;20035;-78
2022/01/31 05:49:45;;;;;;;30.88;8.07;;;;;;;2.49;52.90;94872.66;4937782;28;20380;-77
2022/01/31 05:52:10;;;;;;;9.57;6.70;;;;;;;2.50;52.98;94876.03;4937666;28;20118;-77
2022/01/31 05:54:37;;;;;;;21.42;9.45;;;;;;;2.60;52.79;94873.94;4972729;28;20030;-77
2022/01/31 05:57:03;;;;;;;15.95;7.30;;;;;;;2.64;52.05;94870.06;4971930;28;20034;-77
2022/01/31 05:59:29;;;;;;;17.85;9.40;;;;;;;2.75;51.68;94861.88;4955450;28;20105;-77
2022/01/31 06:01:54;;;;;;;21.38;10.32;;;;;;;2.85;51.39;94859.03;4972473;28;20034;-77
2022/01/31 06:04:20;;;;;;;39.08;17.90;;;;;;;2.86;51.16;94855.47;4972614;28;20518;-78
2022/01/31 06:06:45;;;;;;;36.35;11.98;;;;;;;2.87;51.16;94857.06;4954598;28;20073;-77
2022/01/31 06:09:11;;;;;;;17.13;7.60;;;;;;;2.92;50.58;94855.53;4954607;28;20054;-77
2022/01/31 06:11:36;;;;;;;15.13;7.22;;;;;;;2.98;50.64;94847.09;4954888;28;20027;-77
2022/01/31 06:14:02;;;;;;;16.58;7.82;;;;;;;3.06;50.63;94845.38;4954641;28;20045;-77
2022/01/31 06:16:28;;;;;;;18.65;7.85;;;;;;;3.21;49.92;94843.53;4938740;28;20511;-78
2022/01/31 06:18:54;;;;;;;18.45;8.13;;;;;;;3.36;49.21;94841.69;4955058;28;20061;-78
2022/01/31 06:21:19;;;;;;;17.05;7.22;;;;;;;3.55;48.25;94846.16;4972081;28;20034;-77
2022/01/31 06:23:45;;;;;;;23.58;8.45;;;;;;;3.64;48.03;94848.59;4938966;28;20384;-76
2022/01/31 06:28:40;;;;;;;19.58;8.10;;;;;;;3.99;47.69;94846.84;4998822;23;20434;-77
2022/01/31 06:31:06;;;;;;;14.55;7.85;;;;;;;4.18;46.70;94849.50;4970883;28;20041;-76
2022/01/31 06:33:32;;;;;;;19.50;7.15;;;;;;;4.33;46.15;94846.00;4937517;28;20035;-77
2022/01/31 06:35:58;;;;;;;25.58;9.27;;;;;;;4.37;45.85;94857.50;4953232;23;20035;-77
2022/01/31 06:38:23;;;;;;;27.52;8.57;;;;;;;4.56;45.11;94861.94;4943361;28;20104;-77
2022/01/31 06:40:49;;;;;;;26.17;12.20;;;;;;;4.66;45.62;94853.84;4952871;28;20046;-77
2022/01/31 06:43:14;;;;;;;38.45;14.95;;;;;;;4.82;45.40;94851.69;4960925;28;20035;-77
2022/01/31 06:45:40;;;;;;;32.47;12.60;;;;;;;4.95;44.85;94845.78;4957794;28;20032;-77
2022/01/31 06:48:06;;;;;;;19.42;8.43;;;;;;;5.13;44.18;94837.47;4950060;29;20113;-77
2022/01/31 06:50:31;;;;;;;33.63;10.65;;;;;;;5.21;43.43;94821.84;4949804;29;20059;-76
2022/01/31 06:52:57;;;;;;;27.70;10.57;;;;;;;5.23;43.11;94819.84;4934191;29;20035;-77
2022/01/31 06:55:23;;;;;;;22.83;9.23;;;;;;;5.37;43.09;94829.19;4949931;29;20042;-77
2022/01/31 06:57:49;;;;;;;28.50;11.38;;;;;;;5.41;42.52;94820.03;4934756;29;20455;-78
2022/01/31 07:00:17;;;;;;;20.35;8.60;;;;;;;5.40;42.93;94805.56;4951054;28;20027;-79
2022/01/31 07:02:43;;;;;;;20.80;7.95;;;;;;;5.50;42.59;94804.34;4936556;28;20094;-81
2022/01/31 07:07:38;;;;;;;30.25;7.28;;;;;;;5.57;41.77;94800.78;4957807;28;20105;-76
2022/01/31 07:10:05;;;;;;;30.55;10.73;;;;;;;5.64;41.80;94803.34;4966905;28;20478;-76
2022/01/31 07:12:36;;;;;;;16.45;9.00;;;;;;;5.73;42.77;94784.09;4970669;28;20039;-77
2022/01/31 07:15:02;;;;;;;27.93;9.80;;;;;;;5.87;41.84;94795.97;4944978;23;20037;-76
2022/01/31 07:17:28;;;;;;;29.88;11.43;;;;;;;5.97;40.76;94809.25;4999908;28;20553;-77
2022/01/31 07:19:54;;;;;;;20.42;9.55;;;;;;;5.93;41.23;94813.25;4999009;28;20062;-77
2022/01/31 07:22:23;;;;;;;88.43;27.45;;;;;;;5.93;40.74;94805.50;4998686;28;20084;-77
2022/01/31 07:25:01;;;;;;;27.95;13.27;;;;;;;6.09;40.14;94806.06;4982454;28;20034;-77
2022/01/31 07:27:26;;;;;;;36.90;10.65;;;;;;;6.20;39.77;94803.63;4967383;28;20049;-77
2022/01/31 07:29:51;;;;;;;20.70;8.57;;;;;;;6.31;40.08;94804.75;5001186;28;20038;-77
2022/01/31 07:32:19;;;;;;;21.70;8.13;;;;;;;6.41;39.71;94791.41;4965728;28;20438;-77
2022/01/31 07:34:46;;;;;;;22.92;7.25;;;;;;;6.50;39.34;94785.00;4950259;28;20063;-77
2022/01/31 07:37:11;;;;;;;27.23;8.45;;;;;;;6.54;38.86;94776.66;4999307;28;20037;-77
2022/01/31 07:42:09;;;;;;;;;;;;;;;6.68;38.60;94764.47;4996596;23;20057;-77
2022/01/31 07:44:35;;;;;;;11.35;5.20;;;;;;;6.54;37.76;94761.16;4984415;28;19926;-77
2022/01/31 07:47:01;;;;;;;21.42;7.00;;;;;;;6.38;38.07;94763.44;4978618;28;20035;-77
2022/01/31 07:49:26;;;;;;;22.90;8.68;;;;;;;6.49;37.91;94768.72;5081522;23;20516;-77
2022/01/31 07:51:54;;;;;;;14.35;7.22;;;;;;;6.67;37.93;94760.28;4944089;29;20387;-77
2022/01/31 07:54:20;;;;;;;14.43;6.57;;;;;;;6.59;37.67;94763.09;4941491;28;20070;-77
2022/01/31 07:56:45;;;;;;;28.60;7.20;;;;;;;6.71;38.26;94764.03;4941597;29;20470;-77
2022/01/31 07:59:11;;;;;;;35.78;9.35;;;;;;;6.79;38.13;94768.16;4940469;28;20027;-77
2022/01/31 08:01:36;;;;;;;23.70;10.25;;;;;;;6.94;38.14;94766.06;4924141;29;20039;-76
2022/01/31 08:06:37;;;;;;;32.53;10.50;;;;;;;7.19;37.19;94764.28;5000930;23;20054;-77
2022/01/31 08:09:03;;;;;;;30.30;10.55;;;;;;;7.34;36.63;94753.63;4966693;28;20101;-77
2022/01/31 08:11:33;;;;;;;22.50;9.90;;;;;;;7.28;36.68;94758.81;4972040;28;20038;-77
2022/01/31 08:14:02;;;;;;;20.27;9.60;;;;;;;7.15;36.92;94763.09;4961323;23;20039;-77
2022/01/31 08:16:27;;;;;;;26.42;9.88;;;;;;;7.14;37.32;94761.50;4972291;23;20184;-77
2022/01/31 08:18:53;;;;;;;31.70;9.10;;;;;;;7.23;37.56;94749.13;4968990;28;20101;-76
2022/01/31 08:21:20;;;;;;;30.20;11.07;;;;;;;7.21;36.64;94751.94;4966572;28;20049;-76
2022/01/31 08:23:45;;;;;;;26.10;10.50;;;;;;;7.33;35.98;94743.47;4950856;28;20045;-76
2022/01/31 08:26:14;;;;;;;16.92;6.55;;;;;;;7.23;35.90;94739.56;4966113;28;20034;-76
2022/01/31 08:28:43;;;;;;;16.48;5.60;;;;;;;7.25;35.45;94734.19;4965907;28;20042;-77
2022/01/31 08:31:18;;;;;;;23.83;9.10;;;;;;;7.19;35.75;94747.97;4957197;23;20198;-77
2022/01/31 08:36:19;;;;;;;21.60;8.98;;;;;;;7.19;35.71;94745.38;5003356;23;20437;-77
2022/01/31 08:38:45;;;;;;;16.55;7.90;;;;;;;7.35;35.64;94741.47;4993560;28;20027;-78
2022/01/31 08:41:11;;;;;;;17.52;7.57;;;;;;;7.43;35.64;94759.28;4943316;28;20046;-77
2022/01/31 08:43:36;;;;;;;18.88;6.65;;;;;;;7.50;35.18;94754.88;4974380;28;20049;-79
2022/01/31 08:46:03;;;;;;;36.65;11.88;;;;;;;7.61;35.69;94750.75;4958283;28;20038;-77
2022/01/31 08:48:28;;;;;;;17.73;6.55;;;;;;;7.67;35.09;94742.94;4941050;28;20126;-78
2022/01/31 08:50:54;;;;;;;13.35;6.68;;;;;;;7.62;34.85;94736.81;4925403;28;20039;-80
2022/01/31 08:53:20;;;;;;;15.65;6.70;;;;;;;7.52;35.09;94751.06;4941604;28;20042;-78
2022/01/31 08:55:50;;;;;;;22.08;7.38;;;;;;;7.39;34.98;94747.78;4941770;28;20392;-78
2022/01/31 08:58:16;;;;;;;17.88;7.78;;;;;;;7.28;35.02;94748.47;4957358;28;20114;-78
2022/01/31 09:05:36;;;;;;;12.05;6.18;;;;;;;6.92;35.99;94747.38;4983959;28;20062;-78
2022/01/31 09:08:02;;;;;;;11.48;5.63;;;;;;;6.93;36.00;94738.63;4968097;28;20042;-78
2022/01/31 09:10:27;;;;;;;13.88;6.07;;;;;;;6.93;36.33;94728.28;4964819;28;20089;-79
2022/01/31 09:12:52;;;;;;;16.13;7.18;;;;;;;6.85;35.95;94731.13;4984466;28;20039;-79
2022/01/31 09:15:18;;;;;;;23.02;10.40;;;;;;;6.87;36.27;94723.97;4984759;28;20034;-78
2022/01/31 09:17:43;;;;;;;18.35;8.95;;;;;;;6.95;36.06;94721.09;4986159;28;20092;-78
2022/01/31 09:20:09;;;;;;;18.05;7.65;;;;;;;6.97;36.11;94719.09;4985120;28;20035;-78
2022/01/31 09:22:35;;;;;;;15.35;6.00;;;;;;;6.95;35.88;94725.47;4984062;28;20071;-78
2022/01/31 09:25:01;;;;;;;20.10;8.43;;;;;;;7.00;36.04;94705.78;4963167;28;20125;-78
2022/01/31 09:27:27;;;;;;;18.70;5.88;;;;;;;6.99;35.41;94693.81;4966588;28;20121;-79
2022/01/31 09:29:54;;;;;;;12.85;4.85;;;;;;;6.80;35.56;94705.13;4941104;28;20034;-78
2022/01/31 09:32:23;;;;;;;17.40;5.25;;;;;;;6.71;35.43;94703.81;4975274;28;20062;-78
2022/01/31 09:34:48;;;;;;;17.00;4.20;;;;;;;6.68;35.84;94704.22;4990107;28;20035;-80
2022/01/31 09:37:14;;;;;;;12.13;4.85;;;;;;;6.75;35.67;94686.88;5006516;28;20073;-79
2022/01/31 09:39:42;;;;;;;14.27;4.90;;;;;;;6.68;35.40;94693.91;4986215;28;20043;-78
2022/01/31 09:42:13;;;;;;;14.57;6.22;;;;;;;6.76;35.10;94685.88;4960149;28;20042;-79
2022/01/31 09:47:18;;;;;;;11.93;5.32;;;;;;;6.93;35.21;94661.88;4988045;28;20081;-79
2022/01/31 09:49:43;;;;;;;14.25;3.50;;;;;;;6.99;35.43;94657.63;4986016;28;20010;-79
2022/01/31 09:52:09;;;;;;;27.83;11.30;;;;;;;7.16;35.73;94653.50;4999475;28;20042;-78
2022/01/31 09:54:34;;;;;;;26.90;6.03;;;;;;;7.18;34.28;94654.09;4973622;28;20075;-80
2022/01/31 09:57:00;;;;;;;24.83;9.90;;;;;;;7.29;34.95;94644.03;4980537;28;20088;-80
2022/01/31 09:59:25;;;;;;;18.35;7.50;;;;;;;7.34;34.74;94654.53;4972147;28;20427;-79
2022/01/31 10:01:52;;;;;;;24.73;9.23;;;;;;;7.17;34.84;94642.16;4961409;28;20038;-80
2022/01/31 10:04:19;;;;;;;25.90;10.27;;;;;;;7.30;34.36;94636.03;4971411;28;20050;-79
2022/01/31 10:06:55;;;;;;;13.98;5.93;;;;;;;7.29;34.27;94633.69;4994059;28;20062;-79
2022/01/31 10:09:31;;;;;;;16.60;8.80;;;;;;;7.40;34.89;94620.81;4959726;28;20046;-79
2022/01/31 10:12:07;;;;;;;27.17;13.63;;;;;;;7.53;34.95;94614.72;4953247;28;20071;-79
2022/01/31 10:17:24;;;;;;;18.38;6.68;;;;;;;7.65;33.97;94591.50;4991867;28;20612;-79
2022/01/31 10:19:51;;;;;;;15.88;5.50;;;;;;;7.62;32.94;94579.75;4984631;28;20050;-79
2022/01/31 10:22:17;;;;;;;10.45;5.35;;;;;;;7.50;33.44;94584.09;4953583;28;20102;-79
2022/01/31 10:24:45;;;;;;;12.38;5.25;;;;;;;7.51;33.66;94578.72;4969797;28;20110;-79
2022/01/31 10:27:26;;;;;;;19.58;8.82;;;;;;;7.58;34.14;94565.69;4968929;28;20126;-79
2022/01/31 10:29:52;;;;;;;34.03;10.32;;;;;;;7.70;34.31;94566.53;4948262;28;20031;-78
2022/01/31 10:32:33;;;;;;;11.20;5.63;;;;;;;7.68;33.25;94565.16;4988622;28;20042;-77
2022/01/31 10:35:01;;;;;;;14.65;6.20;;;;;;;7.74;33.97;94551.34;4982804;28;20034;-79
2022/01/31 10:37:29;;;;;;;20.98;8.60;;;;;;;7.87;34.10;94547.78;4965507;28;20041;-78
2022/01/31 10:53:47;;;;;;;23.83;9.60;;;;;;;7.90;34.39;94496.34;4984712;28;20042;-78
2022/01/31 10:56:12;;;;;;;36.55;10.02;;;;;;;7.79;33.89;94487.53;4974817;28;20035;-78
2022/01/31 10:58:59;;;;;;;31.58;12.57;;;;;;;7.74;34.86;94479.66;4992071;28;20038;-78
2022/01/31 11:01:26;;;;;;;17.38;6.72;;;;;;;7.69;34.43;94479.53;4991455;28;20061;-78
2022/01/31 11:03:53;;;;;;;15.57;4.88;;;;;;;7.69;34.10;94471.78;4966593;28;20026;-78
2022/01/31 11:06:20;;;;;;;28.58;9.88;;;;;;;7.68;34.32;94462.44;4966689;28;20062;-77
2022/01/31 11:08:45;;;;;;;16.17;6.03;;;;;;;7.56;34.17;94468.59;4990673;28;20065;-77
2022/01/31 11:11:11;;;;;;;24.58;9.57;;;;;;;7.42;35.33;94467.97;4981695;28;20061;-78
2022/01/31 11:13:36;;;;;;;15.25;5.05;;;;;;;7.34;34.82;94466.50;4979800;28;20061;-78
2022/01/31 11:16:04;;;;;;;31.98;11.60;;;;;;;7.27;34.80;94459.84;4953245;23;20030;-78
2022/01/31 11:18:30;;;;;;;23.27;9.20;;;;;;;7.14;35.13;94461.56;4979876;28;20034;-78
2022/01/31 11:21:01;;;;;;;24.92;9.13;;;;;;;7.05;35.58;94468.06;5003588;23;20030;-78
2022/01/31 11:23:27;;;;;;;26.50;9.48;;;;;;;7.05;34.96;94467.28;4995022;23;20046;-77
2022/01/31 11:25:56;;;;;;;12.23;6.68;;;;;;;7.06;35.04;94464.47;4981427;28;20078;-79
2022/01/31 11:28:22;;;;;;;16.65;6.45;;;;;;;7.11;34.88;94451.69;4957586;28;20180;-78
2022/01/31 11:30:47;;;;;;;14.20;7.40;;;;;;;7.09;35.59;94433.00;4975355;28;20109;-79
2022/01/31 11:33:13;;;;;;;32.72;10.52;;;;;;;6.83;35.49;94434.16;4958092;28;20042;-78
2022/01/31 11:35:38;;;;;;;21.85;9.60;;;;;;;6.83;36.19;94433.31;4975093;28;20492;-78
2022/01/31 11:38:04;;;;;;;12.90;6.72;;;;;;;6.96;34.98;94422.84;4989242;28;20030;-78
2022/01/31 11:40:29;;;;;;;19.52;8.32;;;;;;;7.04;35.33;94419.97;4992201;28;20026;-78
2022/01/31 11:42:54;;;;;;;17.65;5.10;;;;;;;7.10;34.22;94416.47;4958355;28;20169;-77
2022/01/31 11:45:28;;;;;;;20.80;9.27;;;;;;;7.17;34.67;94414.63;4956546;28;20495;-77
2022/01/31 11:47:54;;;;;;;35.67;13.73;;;;;;;7.14;35.52;94409.84;4989504;28;20042;-78
2022/01/31 11:50:21;;;;;;;18.02;9.13;;;;;;;7.14;35.08;94398.72;4964170;28;20569;-78
2022/01/31 11:53:00;;;;;;;29.02;10.18;;;;;;;7.10;35.18;94392.44;4983562;28;20038;-78
2022/01/31 11:55:29;;;;;;;29.70;12.90;;;;;;;7.06;35.51;94386.91;4978776;28;20517;-78
2022/01/31 11:57:56;;;;;;;22.77;8.90;;;;;;;7.12;35.22;94380.84;4976242;28;20042;-79
2022/01/31 12:00:23;;;;;;;15.52;7.68;;;;;;;7.10;34.32;94369.94;4957192;28;20034;-78
2022/01/31 12:02:51;;;;;;;25.90;8.60;;;;;;;7.11;34.53;94374.09;4940619;28;20451;-78
2022/01/31 12:05:25;;;;;;;18.00;6.15;;;;;;;7.05;34.74;94364.66;4990115;28;20038;-78
2022/01/31 12:08:12;;;;;;;26.80;9.75;;;;;;;7.14;34.94;94362.53;4990837;28;20513;-78